createdAt,value
2018-02-27T00:01:57.653Z,-9.43
2018-02-27T00:04:25.424Z,-9.63
2018-02-27T00:06:52.988Z,-9.60
2018-02-27T00:09:20.832Z,-9.64
2018-02-27T00:11:48.407Z,-9.65
2018-02-27T00:14:16.324Z,-9.76
2018-02-27T00:16:43.971Z,-9.92
2018-02-27T00:19:11.723Z,-9.84
2018-02-27T00:21:39.396Z,-9.85
2018-02-27T00:24:07.152Z,-9.99
2018-02-27T00:26:34.983Z,-9.83
2018-02-27T00:29:02.701Z,-9.84
2018-02-27T00:31:30.435Z,-10.00
2018-02-27T00:33:57.954Z,-10.07
2018-02-27T00:36:25.587Z,-10.20
2018-02-27T00:38:53.278Z,-10.24
2018-02-27T00:41:20.835Z,-10.18
2018-02-27T00:43:48.368Z,-10.11
2018-02-27T00:46:15.963Z,-9.84
2018-02-27T00:48:43.593Z,-9.88
2018-02-27T00:51:11.100Z,-9.84
2018-02-27T00:53:38.639Z,-9.98
2018-02-27T00:56:06.353Z,-10.05
2018-02-27T00:58:34.010Z,-10.19
2018-02-27T01:01:01.630Z,-10.21
2018-02-27T01:03:29.528Z,-10.29
2018-02-27T01:05:57.069Z,-10.19
2018-02-27T01:08:24.782Z,-10.21
2018-02-27T01:10:52.372Z,-10.06
2018-02-27T01:13:20.028Z,-10.05
2018-02-27T01:15:47.769Z,-10.08
2018-02-27T01:18:15.504Z,-9.99
2018-02-27T01:20:43.138Z,-9.95
2018-02-27T01:23:10.998Z,-9.99
2018-02-27T01:25:38.543Z,-9.79
2018-02-27T01:28:06.157Z,-9.66
2018-02-27T01:30:34.131Z,-9.51
2018-02-27T01:33:01.786Z,-9.68
2018-02-27T01:35:29.488Z,-9.81
2018-02-27T01:37:57.697Z,-9.78
2018-02-27T01:40:25.874Z,-9.89
2018-02-27T01:42:53.423Z,-9.75
2018-02-27T01:45:21.006Z,-9.74
2018-02-27T01:47:48.733Z,-9.79
2018-02-27T01:50:16.269Z,-9.79
2018-02-27T01:52:44.075Z,-9.73
2018-02-27T01:55:11.608Z,-9.72
2018-02-27T01:57:39.339Z,-9.77
2018-02-27T02:00:06.865Z,-9.72
2018-02-27T02:02:34.582Z,-9.77
2018-02-27T02:05:02.102Z,-9.73
2018-02-27T02:07:29.733Z,-9.67
2018-02-27T02:09:57.312Z,-9.63
2018-02-27T02:12:24.938Z,-9.82
2018-02-27T02:14:52.583Z,-9.87
2018-02-27T02:17:20.099Z,-9.89
2018-02-27T02:19:47.625Z,-9.79
2018-02-27T02:22:16.092Z,-9.82
2018-02-27T02:24:43.664Z,-9.67
2018-02-27T02:27:11.376Z,-9.82
2018-02-27T02:29:39.382Z,-9.71
2018-02-27T02:32:07.811Z,-9.85
2018-02-27T02:34:36.147Z,-9.94
2018-02-27T02:37:04.079Z,-9.81
2018-02-27T02:39:31.645Z,-9.86
2018-02-27T02:42:22.017Z,-9.89
2018-02-27T02:44:49.555Z,-10.08
2018-02-27T02:47:17.128Z,-9.85
2018-02-27T02:49:44.698Z,-10.01
2018-02-27T02:52:12.369Z,-9.97
2018-02-27T02:54:39.899Z,-9.94
2018-02-27T02:57:07.570Z,-9.86
2018-02-27T02:59:35.225Z,-10.15
2018-02-27T03:02:02.973Z,-10.26
2018-02-27T03:04:30.647Z,-9.94
2018-02-27T03:06:58.473Z,-10.11
2018-02-27T03:09:25.998Z,-10.16
2018-02-27T03:11:53.802Z,-10.14
2018-02-27T03:14:21.477Z,-10.14
2018-02-27T03:16:49.322Z,-10.03
2018-02-27T03:19:16.849Z,-10.01
2018-02-27T03:21:44.433Z,-9.97
2018-02-27T03:24:11.918Z,-9.84
2018-02-27T03:26:39.463Z,-10.07
2018-02-27T03:29:06.933Z,-10.18
2018-02-27T03:31:34.508Z,-10.13
2018-02-27T03:34:02.165Z,-9.87
2018-02-27T03:36:29.899Z,-9.99
2018-02-27T03:38:57.391Z,-10.13
2018-02-27T03:41:24.860Z,-10.26
2018-02-27T03:43:52.469Z,-10.11
2018-02-27T03:46:19.997Z,-10.09
2018-02-27T03:48:47.744Z,-10.13
2018-02-27T03:51:15.348Z,-10.16
2018-02-27T03:53:42.892Z,-9.99
2018-02-27T03:56:10.944Z,-10.20
2018-02-27T03:58:38.567Z,-10.15
2018-02-27T04:01:06.364Z,-10.12
2018-02-27T04:03:33.889Z,-10.04
2018-02-27T04:06:02.527Z,-10.13
2018-02-27T04:08:30.100Z,-10.03
2018-02-27T04:10:57.728Z,-10.17
2018-02-27T04:13:25.910Z,-10.29
2018-02-27T04:15:54.490Z,-10.28
2018-02-27T04:18:22.059Z,-10.18
2018-02-27T04:20:49.639Z,-9.89
2018-02-27T04:23:17.270Z,-9.95
2018-02-27T04:25:44.909Z,-10.14
2018-02-27T04:28:12.513Z,-10.10
2018-02-27T04:30:40.058Z,-10.23
2018-02-27T04:33:07.746Z,-10.42
2018-02-27T04:35:35.292Z,-10.45
2018-02-27T04:38:02.933Z,-10.52
2018-02-27T04:40:30.462Z,-10.47
2018-02-27T04:42:58.008Z,-10.41
2018-02-27T04:45:25.642Z,-10.54
2018-02-27T04:47:53.157Z,-10.45
2018-02-27T04:50:20.833Z,-10.67
2018-02-27T04:52:48.494Z,-10.68
2018-02-27T04:55:16.129Z,-10.79
2018-02-27T04:57:43.952Z,-10.79
2018-02-27T05:00:11.498Z,-10.81
2018-02-27T05:02:39.462Z,-10.85
2018-02-27T05:05:07.018Z,-10.97
2018-02-27T05:07:34.569Z,-11.05
2018-02-27T05:10:02.338Z,-11.19
2018-02-27T05:12:29.890Z,-11.12
2018-02-27T05:14:57.685Z,-11.04
2018-02-27T05:17:25.533Z,-10.92
2018-02-27T05:19:53.162Z,-10.84
2018-02-27T05:22:20.759Z,-10.86
2018-02-27T05:24:48.404Z,-10.85
2018-02-27T05:27:16.405Z,-10.76
2018-02-27T05:29:44.044Z,-10.88
2018-02-27T05:32:11.758Z,-10.86
2018-02-27T05:34:39.493Z,-10.89
2018-02-27T05:37:07.140Z,-10.79
2018-02-27T05:39:34.804Z,-10.94
2018-02-27T05:42:02.573Z,-11.08
2018-02-27T05:44:30.464Z,-11.07
2018-02-27T05:46:58.169Z,-11.18
2018-02-27T05:49:25.699Z,-11.11
2018-02-27T05:51:53.261Z,-11.00
2018-02-27T05:54:21.023Z,-10.35
2018-02-27T05:56:48.554Z,-10.38
2018-02-27T05:59:16.089Z,-10.66
2018-02-27T06:01:43.664Z,-10.72
2018-02-27T06:04:11.357Z,-10.98
2018-02-27T06:06:38.967Z,-11.12
2018-02-27T06:09:06.964Z,-11.12
2018-02-27T06:11:34.777Z,-11.32
2018-02-27T06:14:02.403Z,-11.31
2018-02-27T06:16:29.944Z,-11.35
2018-02-27T06:18:57.899Z,-11.23
2018-02-27T06:21:25.427Z,-11.24
2018-02-27T06:23:53.128Z,-11.27
2018-02-27T06:26:20.694Z,-11.37
2018-02-27T06:28:48.365Z,-11.32
2018-02-27T06:31:16.062Z,-11.08
2018-02-27T06:33:43.714Z,-10.97
2018-02-27T06:36:11.390Z,-10.95
2018-02-27T06:38:39.723Z,-10.77
2018-02-27T06:41:07.499Z,-10.67
2018-02-27T06:43:35.448Z,-10.62
2018-02-27T06:46:03.085Z,-10.50
2018-02-27T06:48:30.658Z,-10.64
2018-02-27T06:50:58.234Z,-10.59
2018-02-27T06:53:25.779Z,-10.61
2018-02-27T06:55:53.322Z,-10.69
2018-02-27T06:58:21.129Z,-10.48
2018-02-27T07:00:48.888Z,-10.60
2018-02-27T07:03:16.438Z,-10.42
2018-02-27T07:05:43.958Z,-10.36
2018-02-27T07:08:11.500Z,-10.21
2018-02-27T07:10:39.397Z,-10.36
2018-02-27T07:13:06.930Z,-10.21
2018-02-27T07:15:34.564Z,-10.25
2018-02-27T07:18:02.228Z,-10.21
2018-02-27T07:20:29.884Z,-10.03
2018-02-27T07:22:57.582Z,-9.92
2018-02-27T07:25:25.174Z,-9.78
2018-02-27T07:27:52.878Z,-9.78
2018-02-27T07:30:21.448Z,-9.70
2018-02-27T07:32:49.179Z,-9.73
2018-02-27T07:35:17.720Z,-9.34
2018-02-27T07:37:45.250Z,-9.58
2018-02-27T07:40:12.942Z,-9.54
2018-02-27T07:42:40.689Z,-9.75
2018-02-27T07:45:08.292Z,-9.80
2018-02-27T07:47:35.856Z,-9.69
2018-02-27T07:50:04.421Z,-9.65
2018-02-27T07:52:32.127Z,-9.75
2018-02-27T07:54:59.744Z,-9.54
2018-02-27T07:57:27.369Z,-9.43
2018-02-27T07:59:55.044Z,-9.30
2018-02-27T08:02:22.819Z,-9.48
2018-02-27T08:04:50.604Z,-9.50
2018-02-27T08:07:18.224Z,-9.44
2018-02-27T08:09:45.846Z,-9.47
2018-02-27T08:12:13.564Z,-9.31
2018-02-27T08:14:41.190Z,-9.39
2018-02-27T08:17:09.006Z,-9.08
2018-02-27T08:19:36.985Z,-9.00
2018-02-27T08:22:04.740Z,-8.99
2018-02-27T08:24:32.383Z,-9.23
2018-02-27T08:27:00.124Z,-9.09
2018-02-27T08:29:27.850Z,-8.91
2018-02-27T08:31:55.640Z,-8.84
2018-02-27T08:34:23.159Z,-8.26
2018-02-27T08:36:50.754Z,-7.80
2018-02-27T08:39:18.297Z,-8.12
2018-02-27T08:41:46.271Z,-8.40
2018-02-27T08:44:14.108Z,-7.96
2018-02-27T08:46:41.788Z,-7.43
2018-02-27T08:49:09.474Z,-7.17
2018-02-27T08:51:37.015Z,-6.35
2018-02-27T08:54:04.606Z,-5.78
2018-02-27T08:56:32.235Z,-6.87
2018-02-27T08:58:59.823Z,-6.46
2018-02-27T09:01:27.345Z,-5.90
2018-02-27T09:03:54.929Z,-5.57
2018-02-27T09:06:22.439Z,-5.83
2018-02-27T09:08:50.548Z,-6.85
2018-02-27T09:11:18.500Z,-7.20
2018-02-27T09:13:46.110Z,-7.08
2018-02-27T09:16:13.648Z,-6.76
2018-02-27T09:18:41.391Z,-6.02
2018-02-27T09:21:09.067Z,-6.20
2018-02-27T09:23:36.714Z,-6.26
2018-02-27T09:26:04.364Z,-6.05
2018-02-27T09:28:32.004Z,-6.09
2018-02-27T09:30:59.583Z,-6.63
2018-02-27T09:33:27.219Z,-6.12
2018-02-27T09:35:54.763Z,-4.78
2018-02-27T09:38:22.374Z,-5.32
2018-02-27T09:40:50.919Z,-6.63
2018-02-27T09:43:18.443Z,-6.48
2018-02-27T09:45:46.150Z,-5.97
2018-02-27T09:48:13.819Z,-5.26
2018-02-27T09:50:41.505Z,-4.15
2018-02-27T09:53:09.035Z,-4.11
2018-02-27T09:55:36.710Z,-5.56
2018-02-27T09:58:04.297Z,-4.60
2018-02-27T10:00:32.054Z,-3.58
2018-02-27T10:02:59.640Z,-3.24
2018-02-27T10:05:27.172Z,-2.62
2018-02-27T10:07:54.787Z,-3.55
2018-02-27T10:10:22.418Z,-5.91
2018-02-27T10:12:50.133Z,-6.04
2018-02-27T10:15:17.777Z,-5.70
2018-02-27T10:17:45.428Z,-6.20
2018-02-27T10:20:13.945Z,-5.52
2018-02-27T10:22:41.556Z,-5.77
2018-02-27T10:25:09.089Z,-5.82
2018-02-27T10:27:36.760Z,-4.97
2018-02-27T10:30:04.448Z,-4.35
2018-02-27T10:32:32.020Z,-4.01
2018-02-27T10:34:59.699Z,-3.60
2018-02-27T10:37:27.266Z,-2.72
2018-02-27T10:39:55.101Z,-4.57
2018-02-27T10:42:22.762Z,-4.75
2018-02-27T10:44:50.397Z,-5.53
2018-02-27T10:47:18.202Z,-6.28
2018-02-27T10:49:45.848Z,-5.43
2018-02-27T10:52:13.488Z,-5.76
2018-02-27T10:54:41.043Z,-6.13
2018-02-27T10:57:08.859Z,-5.14
2018-02-27T10:59:36.403Z,-5.33
2018-02-27T11:02:11.887Z,-5.42
2018-02-27T11:04:39.817Z,-4.52
2018-02-27T11:07:07.389Z,-5.05
2018-02-27T11:09:35.149Z,-3.57
2018-02-27T11:12:02.784Z,-3.10
2018-02-27T11:14:30.520Z,-3.26
2018-02-27T11:16:58.202Z,-3.75
2018-02-27T11:19:25.742Z,-4.35
2018-02-27T11:21:53.712Z,-2.84
2018-02-27T11:24:21.618Z,-2.56
2018-02-27T11:26:49.171Z,-3.32
2018-02-27T11:29:16.744Z,-1.83
2018-02-27T11:31:44.414Z,-1.38
2018-02-27T11:34:11.968Z,-2.38
2018-02-27T11:36:39.533Z,-3.28
2018-02-27T11:39:07.239Z,-4.70
2018-02-27T11:41:34.923Z,-4.08
2018-02-27T11:44:02.784Z,-3.68
2018-02-27T11:46:31.122Z,-4.86
2018-02-27T11:48:58.819Z,-4.52
2018-02-27T11:51:26.463Z,-4.04
2018-02-27T11:53:54.119Z,-3.90
2018-02-27T11:56:21.799Z,-4.56
2018-02-27T11:58:49.587Z,-4.50
2018-02-27T12:01:17.364Z,-4.82
2018-02-27T12:03:45.003Z,-4.56
2018-02-27T12:06:12.629Z,-5.14
2018-02-27T12:08:40.238Z,-4.00
2018-02-27T12:11:07.790Z,-4.03
2018-02-27T12:13:35.430Z,-4.02
2018-02-27T12:16:03.329Z,-4.26
2018-02-27T12:18:30.979Z,-3.35
2018-02-27T12:20:58.594Z,-3.38
2018-02-27T12:23:26.240Z,-2.98
2018-02-27T12:25:53.764Z,-2.66
2018-02-27T12:28:21.524Z,-2.45
2018-02-27T12:30:49.489Z,-2.89
2018-02-27T12:33:17.135Z,-3.93
2018-02-27T12:35:44.828Z,-2.88
2018-02-27T12:38:12.563Z,-2.25
2018-02-27T12:40:41.235Z,-1.91
2018-02-27T12:43:09.052Z,0.64
2018-02-27T12:45:36.699Z,2.62
2018-02-27T12:48:04.579Z,0.01
2018-02-27T12:50:32.195Z,1.51
2018-02-27T12:52:59.769Z,3.89
2018-02-27T12:55:27.460Z,-1.08
2018-02-27T12:57:55.064Z,-3.75
2018-02-27T13:00:22.609Z,-4.15
2018-02-27T13:02:50.164Z,-1.07
2018-02-27T13:05:18.343Z,0.29
2018-02-27T13:07:45.869Z,2.09
2018-02-27T13:10:13.651Z,-0.01
2018-02-27T13:12:41.303Z,0.15
2018-02-27T13:15:08.860Z,1.63
2018-02-27T13:17:36.399Z,-0.43
2018-02-27T13:20:04.019Z,-1.26
2018-02-27T13:22:32.279Z,-2.21
2018-02-27T13:24:59.958Z,-2.40
2018-02-27T13:27:27.488Z,-1.56
2018-02-27T13:29:55.245Z,0.83
2018-02-27T13:32:22.866Z,2.15
2018-02-27T13:34:50.645Z,4.50
2018-02-27T13:37:18.268Z,2.20
2018-02-27T13:39:45.889Z,1.12
2018-02-27T13:42:13.533Z,-0.23
2018-02-27T13:44:41.278Z,-1.82
2018-02-27T13:47:08.873Z,-1.48
2018-02-27T13:49:36.477Z,-1.93
2018-02-27T13:52:04.066Z,-3.90
2018-02-27T13:54:31.629Z,-4.52
2018-02-27T13:56:59.256Z,-4.56
2018-02-27T13:59:26.898Z,-4.56
2018-02-27T14:01:54.460Z,-4.27
2018-02-27T14:04:21.987Z,-2.87
2018-02-27T14:06:49.713Z,-1.62
2018-02-27T14:09:17.280Z,-1.10
2018-02-27T14:11:44.981Z,-0.27
2018-02-27T14:14:12.624Z,-1.84
2018-02-27T14:16:40.495Z,-2.09
2018-02-27T14:19:08.124Z,-1.29
2018-02-27T14:21:35.864Z,-2.54
2018-02-27T14:24:03.558Z,-1.08
2018-02-27T14:26:31.212Z,-2.07
2018-02-27T14:28:58.909Z,-3.25
2018-02-27T14:31:26.833Z,-3.16
2018-02-27T14:33:54.524Z,-3.82
2018-02-27T14:36:22.134Z,-3.39
2018-02-27T14:38:49.850Z,-2.75
2018-02-27T14:41:17.440Z,-3.37
2018-02-27T14:43:44.985Z,-3.44
2018-02-27T14:46:13.528Z,-4.14
2018-02-27T14:48:41.199Z,-3.16
2018-02-27T14:51:08.775Z,-3.69
2018-02-27T14:53:36.548Z,-3.79
2018-02-27T14:56:04.117Z,-4.01
2018-02-27T14:58:31.719Z,-3.61
2018-02-27T15:00:59.404Z,-4.00
2018-02-27T15:03:27.024Z,-4.35
2018-02-27T15:05:54.689Z,-3.76
2018-02-27T15:08:22.474Z,-4.06
2018-02-27T15:10:50.424Z,-4.20
2018-02-27T15:13:18.253Z,-3.92
2018-02-27T15:15:45.894Z,-4.24
2018-02-27T15:18:13.498Z,-4.29
2018-02-27T15:20:41.178Z,-4.58
2018-02-27T15:23:09.657Z,-4.80
2018-02-27T15:25:37.531Z,-5.04
2018-02-27T15:28:05.222Z,-4.80
2018-02-27T15:30:33.058Z,-4.49
2018-02-27T15:33:00.780Z,-4.70
2018-02-27T15:35:28.343Z,-4.84
2018-02-27T15:37:56.033Z,-5.12
2018-02-27T15:40:23.779Z,-5.34
2018-02-27T15:42:51.378Z,-5.28
2018-02-27T15:45:19.004Z,-5.01
2018-02-27T15:47:46.724Z,-4.64
2018-02-27T15:50:14.280Z,-4.56
2018-02-27T15:52:41.853Z,-4.92
2018-02-27T15:55:09.630Z,-5.02
2018-02-27T15:57:37.214Z,-5.07
2018-02-27T16:00:04.793Z,-5.28
2018-02-27T16:02:32.939Z,-5.29
2018-02-27T16:05:00.938Z,-5.15
2018-02-27T16:07:28.549Z,-5.12
2018-02-27T16:09:56.083Z,-5.26
2018-02-27T16:12:23.655Z,-5.17
2018-02-27T16:14:51.306Z,-5.67
2018-02-27T16:17:18.909Z,-5.50
2018-02-27T16:19:46.459Z,-5.72
2018-02-27T16:22:14.105Z,-5.93
2018-02-27T16:24:41.690Z,-5.83
2018-02-27T16:27:09.508Z,-5.80
2018-02-27T16:29:37.203Z,-5.60
2018-02-27T16:32:05.060Z,-5.56
2018-02-27T16:34:32.681Z,-5.81
2018-02-27T16:37:00.286Z,-5.92
2018-02-27T16:39:27.855Z,-6.21
2018-02-27T16:41:55.513Z,-6.20
2018-02-27T16:44:23.160Z,-6.16
2018-02-27T16:46:50.738Z,-6.21
2018-02-27T16:49:18.306Z,-6.24
2018-02-27T16:51:45.990Z,-6.18
2018-02-27T16:54:13.685Z,-6.21
2018-02-27T16:56:41.375Z,-6.15
2018-02-27T16:59:09.000Z,-6.33
2018-02-27T17:01:36.554Z,-6.42
2018-02-27T17:04:04.283Z,-6.39
2018-02-27T17:06:31.919Z,-6.34
2018-02-27T17:08:59.564Z,-6.62
2018-02-27T17:11:27.128Z,-6.61
2018-02-27T17:13:54.690Z,-6.55
2018-02-27T17:16:22.332Z,-6.52
2018-02-27T17:18:49.916Z,-6.79
2018-02-27T17:21:17.503Z,-6.71
2018-02-27T17:23:45.128Z,-6.65
2018-02-27T17:26:12.894Z,-6.84
2018-02-27T17:28:40.469Z,-6.83
2018-02-27T17:31:08.080Z,-6.97
2018-02-27T17:33:35.964Z,-6.79
2018-02-27T17:36:03.861Z,-6.90
2018-02-27T17:38:31.579Z,-6.83
2018-02-27T17:40:59.138Z,-6.85
2018-02-27T17:43:26.948Z,-6.94
2018-02-27T17:45:54.585Z,-6.90
2018-02-27T17:48:22.265Z,-6.88
2018-02-27T17:50:49.841Z,-6.78
2018-02-27T17:53:17.456Z,-6.93
2018-02-27T17:55:45.333Z,-6.84
2018-02-27T17:58:13.118Z,-6.75
2018-02-27T18:00:40.809Z,-6.81
2018-02-27T18:03:08.417Z,-6.84
2018-02-27T18:05:36.026Z,-6.95
2018-02-27T18:08:03.709Z,-7.03
2018-02-27T18:10:31.533Z,-7.04
2018-02-27T18:12:59.122Z,-7.30
2018-02-27T18:15:26.897Z,-7.47
2018-02-27T18:17:54.481Z,-7.40
2018-02-27T18:20:22.123Z,-7.62
2018-02-27T18:22:49.685Z,-7.60
2018-02-27T18:25:17.338Z,-7.64
2018-02-27T18:27:44.916Z,-7.78
2018-02-27T18:30:12.581Z,-7.71
2018-02-27T18:32:40.185Z,-7.80
2018-02-27T18:35:07.759Z,-7.83
2018-02-27T18:37:35.339Z,-8.03
2018-02-27T18:40:03.204Z,-8.08
2018-02-27T18:42:30.780Z,-8.23
2018-02-27T18:44:58.511Z,-8.37
2018-02-27T18:47:26.144Z,-8.02
2018-02-27T18:49:53.786Z,-8.08
2018-02-27T18:52:21.443Z,-8.16
2018-02-27T18:54:49.130Z,-8.41
2018-02-27T18:57:16.770Z,-8.44
2018-02-27T18:59:44.311Z,-8.64
2018-02-27T19:02:12.119Z,-8.65
2018-02-27T19:04:39.659Z,-8.55
2018-02-27T19:07:07.272Z,-8.62
2018-02-27T19:09:34.884Z,-8.73
2018-02-27T19:12:02.615Z,-8.82
2018-02-27T19:14:30.282Z,-8.83
2018-02-27T19:16:58.152Z,-8.84
2018-02-27T19:19:25.837Z,-8.85
2018-02-27T19:21:53.530Z,-8.96
2018-02-27T19:24:21.284Z,-8.92
2018-02-27T19:26:48.860Z,-8.98
2018-02-27T19:29:16.509Z,-8.87
2018-02-27T19:31:44.319Z,-8.77
2018-02-27T19:34:12.195Z,-8.90
2018-02-27T19:36:39.760Z,-9.13
2018-02-27T19:39:07.536Z,-9.29
2018-02-27T19:41:35.242Z,-9.25
2018-02-27T19:44:02.990Z,-9.43
2018-02-27T19:46:30.635Z,-9.40
2018-02-27T19:48:58.172Z,-9.41
2018-02-27T19:51:25.795Z,-9.34
2018-02-27T19:53:53.641Z,-9.45
2018-02-27T19:56:21.321Z,-9.40
2018-02-27T19:58:49.065Z,-9.45
2018-02-27T20:01:16.915Z,-9.46
2018-02-27T20:03:44.551Z,-9.49
2018-02-27T20:06:12.236Z,-9.45
2018-02-27T20:08:39.906Z,-9.58
2018-02-27T20:11:07.599Z,-9.85
2018-02-27T20:13:35.316Z,-9.89
2018-02-27T20:16:03.177Z,-10.07
2018-02-27T20:18:30.866Z,-10.05
2018-02-27T20:20:58.550Z,-10.14
2018-02-27T20:23:31.614Z,-10.03
2018-02-27T20:25:59.158Z,-10.08
2018-02-27T20:28:32.405Z,-10.14
2018-02-27T20:31:00.110Z,-9.82
2018-02-27T20:33:27.666Z,-10.12
2018-02-27T20:35:55.563Z,-10.29
2018-02-27T20:38:28.771Z,-10.66
2018-02-27T20:40:56.691Z,-10.51
2018-02-27T20:43:24.433Z,-10.35
2018-02-27T20:45:52.104Z,-10.26
2018-02-27T20:48:20.285Z,-10.09
2018-02-27T20:50:47.856Z,-10.27
2018-02-27T20:53:15.505Z,-10.49
2018-02-27T20:55:43.159Z,-10.41
2018-02-27T20:58:11.325Z,-10.21
2018-02-27T21:00:38.914Z,-10.53
2018-02-27T21:03:06.604Z,-10.64
2018-02-27T21:05:34.266Z,-10.45
2018-02-27T21:08:01.867Z,-10.88
2018-02-27T21:10:29.583Z,-10.76
2018-02-27T21:12:57.118Z,-10.80
2018-02-27T21:15:24.876Z,-10.60
2018-02-27T21:17:52.558Z,-10.75
2018-02-27T21:20:20.184Z,-10.60
2018-02-27T21:22:47.768Z,-10.74
2018-02-27T21:25:15.599Z,-10.83
2018-02-27T21:27:43.244Z,-11.03
2018-02-27T21:30:10.819Z,-11.29
2018-02-27T21:32:38.471Z,-11.23
2018-02-27T21:35:06.258Z,-11.16
2018-02-27T21:37:33.970Z,-11.39
2018-02-27T21:40:01.560Z,-11.33
2018-02-27T21:42:29.309Z,-11.35
2018-02-27T21:44:56.890Z,-11.47
2018-02-27T21:47:25.019Z,-11.43
2018-02-27T21:49:52.585Z,-11.69
2018-02-27T21:52:20.521Z,-11.77
2018-02-27T21:54:48.177Z,-11.90
2018-02-27T21:57:15.782Z,-11.97
2018-02-27T21:59:43.554Z,-11.90
2018-02-27T22:02:11.320Z,-11.96
2018-02-27T22:04:39.759Z,-12.07
2018-02-27T22:07:07.411Z,-11.87
2018-02-27T22:09:35.158Z,-11.81
2018-02-27T22:12:02.725Z,-11.86
2018-02-27T22:14:30.533Z,-11.96
2018-02-27T22:16:58.293Z,-12.01
2018-02-27T22:19:25.841Z,-12.11
2018-02-27T22:21:53.594Z,-12.19
2018-02-27T22:24:21.279Z,-12.33
2018-02-27T22:26:49.019Z,-12.34
2018-02-27T22:29:16.651Z,-12.25
2018-02-27T22:31:44.455Z,-12.00
2018-02-27T22:34:12.394Z,-11.92
2018-02-27T22:36:39.965Z,-11.94
2018-02-27T22:39:07.579Z,-12.06
2018-02-27T22:41:35.159Z,-11.85
2018-02-27T22:44:02.738Z,-12.17
2018-02-27T22:46:30.358Z,-12.01
2018-02-27T22:48:58.659Z,-12.18
2018-02-27T22:51:26.229Z,-12.33
2018-02-27T22:53:53.778Z,-12.39
2018-02-27T22:56:21.594Z,-12.50
2018-02-27T22:58:49.410Z,-12.46
2018-02-27T23:01:17.050Z,-12.54
2018-02-27T23:03:45.322Z,-12.49
2018-02-27T23:06:12.959Z,-12.47
2018-02-27T23:08:40.544Z,-12.48
2018-02-27T23:11:08.249Z,-12.66
2018-02-27T23:13:35.868Z,-12.73
2018-02-27T23:16:03.460Z,-12.71
2018-02-27T23:18:31.584Z,-12.62
2018-02-27T23:20:59.288Z,-12.57
2018-02-27T23:23:26.984Z,-12.65
2018-02-27T23:26:05.068Z,-12.64
2018-02-27T23:28:35.300Z,-12.88
2018-02-27T23:31:03.395Z,-12.93
2018-02-27T23:33:31.695Z,-12.92
2018-02-27T23:35:59.613Z,-13.04
2018-02-27T23:38:27.189Z,-12.85
2018-02-27T23:40:55.124Z,-12.94
2018-02-27T23:43:22.767Z,-13.18
2018-02-27T23:45:50.328Z,-13.10
2018-02-27T23:48:17.996Z,-12.98
2018-02-27T23:50:45.708Z,-13.14
2018-02-27T23:53:13.253Z,-13.13
2018-02-27T23:55:40.835Z,-12.84
